sensor_id;sensor_type;location;lat;lon;timestamp;P1;durP1;ratioP1;P2;durP2;ratioP2
24357;SDS011;13668;52.154;5.580;2023-03-20T00:01:40;12.43;;;7.82;;
24357;SDS011;13668;52.154;5.580;2023-03-20T00:03:59;17.15;;;8.35;;
24357;SDS011;13668;52.154;5.580;2023-03-20T00:06:25;15.30;;;8.55;;
24357;SDS011;13668;52.154;5.580;2023-03-20T00:08:53;20.40;;;10.10;;
24357;SDS011;13668;52.154;5.580;2023-03-20T00:11:24;14.10;;;8.48;;
24357;SDS011;13668;52.154;5.580;2023-03-20T00:13:55;17.45;;;10.13;;
24357;SDS011;13668;52.154;5.580;2023-03-20T00:16:23;16.02;;;9.80;;
24357;SDS011;13668;52.154;5.580;2023-03-20T00:18:49;17.63;;;10.55;;
24357;SDS011;13668;52.154;5.580;2023-03-20T00:21:16;14.27;;;9.70;;
24357;SDS011;13668;52.154;5.580;2023-03-20T00:23:43;17.90;;;10.57;;
24357;SDS011;13668;52.154;5.580;2023-03-20T00:26:13;15.65;;;9.80;;
24357;SDS011;13668;52.154;5.580;2023-03-20T00:28:40;16.23;;;10.18;;
24357;SDS011;13668;52.154;5.580;2023-03-20T00:31:13;17.65;;;9.57;;
24357;SDS011;13668;52.154;5.580;2023-03-20T00:33:40;16.00;;;10.77;;
24357;SDS011;13668;52.154;5.580;2023-03-20T00:36:07;19.08;;;10.57;;
24357;SDS011;13668;52.154;5.580;2023-03-20T00:38:33;19.20;;;10.93;;
24357;SDS011;13668;52.154;5.580;2023-03-20T00:40:59;16.58;;;11.27;;
24357;SDS011;13668;52.154;5.580;2023-03-20T00:43:25;18.55;;;12.18;;
24357;SDS011;13668;52.154;5.580;2023-03-20T00:45:51;17.00;;;10.93;;
24357;SDS011;13668;52.154;5.580;2023-03-20T00:48:17;19.58;;;11.88;;
24357;SDS011;13668;52.154;5.580;2023-03-20T00:50:43;18.15;;;12.85;;
24357;SDS011;13668;52.154;5.580;2023-03-20T00:53:10;25.20;;;13.90;;
24357;SDS011;13668;52.154;5.580;2023-03-20T00:55:36;23.40;;;13.05;;
24357;SDS011;13668;52.154;5.580;2023-03-20T00:58:03;22.58;;;12.63;;
24357;SDS011;13668;52.154;5.580;2023-03-20T01:03:00;22.73;;;13.32;;
24357;SDS011;13668;52.154;5.580;2023-03-20T01:05:26;21.48;;;13.50;;
24357;SDS011;13668;52.154;5.580;2023-03-20T01:07:53;23.02;;;14.00;;
24357;SDS011;13668;52.154;5.580;2023-03-20T01:10:19;22.40;;;13.10;;
24357;SDS011;13668;52.154;5.580;2023-03-20T01:12:45;24.60;;;14.80;;
24357;SDS011;13668;52.154;5.580;2023-03-20T01:15:16;26.27;;;14.57;;
24357;SDS011;13668;52.154;5.580;2023-03-20T01:17:42;23.05;;;14.25;;
24357;SDS011;13668;52.154;5.580;2023-03-20T01:20:13;27.75;;;16.13;;
24357;SDS011;13668;52.154;5.580;2023-03-20T01:22:39;24.20;;;15.00;;
24357;SDS011;13668;52.154;5.580;2023-03-20T01:25:05;27.02;;;15.98;;
24357;SDS011;13668;52.154;5.580;2023-03-20T01:27:31;23.67;;;16.23;;
24357;SDS011;13668;52.154;5.580;2023-03-20T01:29:57;25.20;;;15.65;;
24357;SDS011;13668;52.154;5.580;2023-03-20T01:32:23;28.70;;;16.80;;
24357;SDS011;13668;52.154;5.580;2023-03-20T01:34:49;22.73;;;14.68;;
24357;SDS011;13668;52.154;5.580;2023-03-20T01:37:19;21.55;;;14.48;;
24357;SDS011;13668;52.154;5.580;2023-03-20T01:39:47;25.85;;;15.98;;
24357;SDS011;13668;52.154;5.580;2023-03-20T01:42:14;23.80;;;14.98;;
24357;SDS011;13668;52.154;5.580;2023-03-20T01:44:43;28.15;;;15.50;;
24357;SDS011;13668;52.154;5.580;2023-03-20T01:47:16;25.08;;;15.13;;
24357;SDS011;13668;52.154;5.580;2023-03-20T01:52:28;23.73;;;14.85;;
24357;SDS011;13668;52.154;5.580;2023-03-20T01:54:53;22.63;;;14.75;;
24357;SDS011;13668;52.154;5.580;2023-03-20T01:57:20;23.23;;;14.23;;
24357;SDS011;13668;52.154;5.580;2023-03-20T01:59:50;19.30;;;13.75;;
24357;SDS011;13668;52.154;5.580;2023-03-20T02:02:18;20.90;;;13.30;;
24357;SDS011;13668;52.154;5.580;2023-03-20T02:04:46;23.52;;;13.75;;
24357;SDS011;13668;52.154;5.580;2023-03-20T02:07:14;19.48;;;11.93;;
24357;SDS011;13668;52.154;5.580;2023-03-20T02:09:42;17.48;;;11.05;;
24357;SDS011;13668;52.154;5.580;2023-03-20T02:12:08;18.52;;;10.77;;
24357;SDS011;13668;52.154;5.580;2023-03-20T02:14:34;16.65;;;10.20;;
24357;SDS011;13668;52.154;5.580;2023-03-20T02:17:02;18.73;;;11.00;;
24357;SDS011;13668;52.154;5.580;2023-03-20T02:19:33;14.38;;;10.13;;
24357;SDS011;13668;52.154;5.580;2023-03-20T02:22:19;16.20;;;9.88;;
24357;SDS011;13668;52.154;5.580;2023-03-20T02:25:00;15.48;;;10.20;;
24357;SDS011;13668;52.154;5.580;2023-03-20T02:35:45;11.88;;;8.38;;
24357;SDS011;13668;52.154;5.580;2023-03-20T02:38:23;13.45;;;8.70;;
24357;SDS011;13668;52.154;5.580;2023-03-20T02:46:14;12.43;;;8.23;;
24357;SDS011;13668;52.154;5.580;2023-03-20T02:51:19;12.52;;;6.88;;
24357;SDS011;13668;52.154;5.580;2023-03-20T02:53:50;13.55;;;7.10;;
24357;SDS011;13668;52.154;5.580;2023-03-20T02:56:19;11.68;;;6.47;;
24357;SDS011;13668;52.154;5.580;2023-03-20T02:58:57;12.02;;;6.90;;
24357;SDS011;13668;52.154;5.580;2023-03-20T03:01:27;10.65;;;6.30;;
24357;SDS011;13668;52.154;5.580;2023-03-20T03:03:55;11.10;;;6.72;;
24357;SDS011;13668;52.154;5.580;2023-03-20T03:06:41;10.60;;;6.70;;
24357;SDS011;13668;52.154;5.580;2023-03-20T03:11:37;11.60;;;6.95;;
24357;SDS011;13668;52.154;5.580;2023-03-20T03:14:04;11.88;;;7.50;;
24357;SDS011;13668;52.154;5.580;2023-03-20T03:16:32;14.00;;;8.45;;
24357;SDS011;13668;52.154;5.580;2023-03-20T03:19:11;13.80;;;7.72;;
24357;SDS011;13668;52.154;5.580;2023-03-20T03:21:38;18.00;;;8.20;;
24357;SDS011;13668;52.154;5.580;2023-03-20T03:24:05;16.33;;;8.52;;
24357;SDS011;13668;52.154;5.580;2023-03-20T03:26:35;14.05;;;8.07;;
24357;SDS011;13668;52.154;5.580;2023-03-20T03:29:04;13.27;;;8.15;;
24357;SDS011;13668;52.154;5.580;2023-03-20T03:31:31;14.55;;;8.23;;
24357;SDS011;13668;52.154;5.580;2023-03-20T03:33:58;14.98;;;9.32;;
24357;SDS011;13668;52.154;5.580;2023-03-20T03:38:55;18.70;;;10.32;;
24357;SDS011;13668;52.154;5.580;2023-03-20T03:41:25;19.20;;;11.35;;
24357;SDS011;13668;52.154;5.580;2023-03-20T03:46:32;19.90;;;11.80;;
24357;SDS011;13668;52.154;5.580;2023-03-20T03:49:00;22.35;;;13.27;;
24357;SDS011;13668;52.154;5.580;2023-03-20T03:51:28;22.15;;;13.10;;
24357;SDS011;13668;52.154;5.580;2023-03-20T03:53:59;22.60;;;12.73;;
24357;SDS011;13668;52.154;5.580;2023-03-20T03:56:27;25.92;;;13.73;;
24357;SDS011;13668;52.154;5.580;2023-03-20T03:58:56;26.52;;;13.55;;
24357;SDS011;13668;52.154;5.580;2023-03-20T04:01:24;23.27;;;13.35;;
24357;SDS011;13668;52.154;5.580;2023-03-20T04:03:52;27.45;;;14.38;;
24357;SDS011;13668;52.154;5.580;2023-03-20T04:06:20;20.20;;;12.38;;
24357;SDS011;13668;52.154;5.580;2023-03-20T04:08:46;21.70;;;13.45;;
24357;SDS011;13668;52.154;5.580;2023-03-20T04:11:16;23.05;;;12.82;;
24357;SDS011;13668;52.154;5.580;2023-03-20T04:13:42;25.75;;;12.45;;
24357;SDS011;13668;52.154;5.580;2023-03-20T04:16:12;25.75;;;13.48;;
24357;SDS011;13668;52.154;5.580;2023-03-20T04:18:38;25.42;;;12.90;;
24357;SDS011;13668;52.154;5.580;2023-03-20T04:21:05;27.63;;;12.65;;
24357;SDS011;13668;52.154;5.580;2023-03-20T04:23:31;20.55;;;12.88;;
24357;SDS011;13668;52.154;5.580;2023-03-20T04:25:57;24.35;;;12.25;;
24357;SDS011;13668;52.154;5.580;2023-03-20T04:28:23;21.90;;;11.23;;
24357;SDS011;13668;52.154;5.580;2023-03-20T04:30:55;21.30;;;11.85;;
24357;SDS011;13668;52.154;5.580;2023-03-20T04:33:22;25.05;;;13.00;;
24357;SDS011;13668;52.154;5.580;2023-03-20T04:35:48;28.10;;;14.13;;
24357;SDS011;13668;52.154;5.580;2023-03-20T04:38:15;24.60;;;13.20;;
24357;SDS011;13668;52.154;5.580;2023-03-20T04:40:42;23.83;;;13.40;;
24357;SDS011;13668;52.154;5.580;2023-03-20T04:43:08;26.65;;;13.57;;
24357;SDS011;13668;52.154;5.580;2023-03-20T04:45:34;24.77;;;13.00;;
24357;SDS011;13668;52.154;5.580;2023-03-20T04:48:00;26.38;;;13.40;;
24357;SDS011;13668;52.154;5.580;2023-03-20T04:50:26;24.13;;;14.57;;
24357;SDS011;13668;52.154;5.580;2023-03-20T04:52:52;26.33;;;14.40;;
24357;SDS011;13668;52.154;5.580;2023-03-20T04:55:18;23.05;;;14.20;;
24357;SDS011;13668;52.154;5.580;2023-03-20T04:57:46;21.58;;;13.27;;
24357;SDS011;13668;52.154;5.580;2023-03-20T05:00:12;23.85;;;14.90;;
24357;SDS011;13668;52.154;5.580;2023-03-20T05:02:38;28.83;;;15.43;;
24357;SDS011;13668;52.154;5.580;2023-03-20T05:05:04;24.02;;;14.80;;
24357;SDS011;13668;52.154;5.580;2023-03-20T05:07:30;24.58;;;15.35;;
24357;SDS011;13668;52.154;5.580;2023-03-20T05:09:56;23.15;;;14.95;;
24357;SDS011;13668;52.154;5.580;2023-03-20T05:12:23;28.70;;;16.67;;
24357;SDS011;13668;52.154;5.580;2023-03-20T05:14:49;31.45;;;15.57;;
24357;SDS011;13668;52.154;5.580;2023-03-20T05:17:15;29.30;;;16.35;;
24357;SDS011;13668;52.154;5.580;2023-03-20T05:19:43;28.73;;;16.17;;
24357;SDS011;13668;52.154;5.580;2023-03-20T05:22:09;27.40;;;16.95;;
24357;SDS011;13668;52.154;5.580;2023-03-20T05:24:35;24.45;;;15.73;;
24357;SDS011;13668;52.154;5.580;2023-03-20T05:27:01;27.50;;;16.42;;
24357;SDS011;13668;52.154;5.580;2023-03-20T05:29:27;26.85;;;17.30;;
24357;SDS011;13668;52.154;5.580;2023-03-20T05:31:53;26.95;;;17.00;;
24357;SDS011;13668;52.154;5.580;2023-03-20T05:34:19;32.05;;;17.50;;
24357;SDS011;13668;52.154;5.580;2023-03-20T05:36:46;30.25;;;17.35;;
24357;SDS011;13668;52.154;5.580;2023-03-20T05:39:12;28.40;;;16.75;;
24357;SDS011;13668;52.154;5.580;2023-03-20T05:41:38;28.40;;;16.58;;
24357;SDS011;13668;52.154;5.580;2023-03-20T05:44:04;26.83;;;17.45;;
24357;SDS011;13668;52.154;5.580;2023-03-20T05:46:30;25.70;;;17.00;;
24357;SDS011;13668;52.154;5.580;2023-03-20T05:48:56;27.90;;;17.35;;
24357;SDS011;13668;52.154;5.580;2023-03-20T05:51:22;32.08;;;16.85;;
24357;SDS011;13668;52.154;5.580;2023-03-20T05:53:48;27.00;;;17.02;;
24357;SDS011;13668;52.154;5.580;2023-03-20T05:56:14;23.80;;;16.10;;
24357;SDS011;13668;52.154;5.580;2023-03-20T05:58:40;31.40;;;16.60;;
24357;SDS011;13668;52.154;5.580;2023-03-20T06:01:06;27.35;;;16.10;;
24357;SDS011;13668;52.154;5.580;2023-03-20T06:03:32;28.80;;;16.38;;
24357;SDS011;13668;52.154;5.580;2023-03-20T06:05:58;27.95;;;17.08;;
24357;SDS011;13668;52.154;5.580;2023-03-20T06:08:24;24.45;;;15.63;;
24357;SDS011;13668;52.154;5.580;2023-03-20T06:10:50;23.80;;;15.50;;
24357;SDS011;13668;52.154;5.580;2023-03-20T06:13:16;25.92;;;15.98;;
24357;SDS011;13668;52.154;5.580;2023-03-20T06:15:42;22.52;;;15.93;;
24357;SDS011;13668;52.154;5.580;2023-03-20T06:18:08;28.50;;;15.52;;
24357;SDS011;13668;52.154;5.580;2023-03-20T06:20:34;22.75;;;15.73;;
24357;SDS011;13668;52.154;5.580;2023-03-20T06:23:00;24.85;;;15.02;;
24357;SDS011;13668;52.154;5.580;2023-03-20T06:25:26;28.17;;;15.88;;
24357;SDS011;13668;52.154;5.580;2023-03-20T06:27:52;24.02;;;14.93;;
24357;SDS011;13668;52.154;5.580;2023-03-20T06:30:18;25.38;;;14.85;;
24357;SDS011;13668;52.154;5.580;2023-03-20T06:32:44;23.48;;;14.20;;
24357;SDS011;13668;52.154;5.580;2023-03-20T06:35:10;27.08;;;16.05;;
24357;SDS011;13668;52.154;5.580;2023-03-20T06:37:36;28.60;;;15.80;;
24357;SDS011;13668;52.154;5.580;2023-03-20T06:40:03;24.45;;;14.02;;
24357;SDS011;13668;52.154;5.580;2023-03-20T06:42:29;24.13;;;14.75;;
24357;SDS011;13668;52.154;5.580;2023-03-20T06:44:55;25.88;;;14.77;;
24357;SDS011;13668;52.154;5.580;2023-03-20T06:47:21;22.33;;;15.07;;
24357;SDS011;13668;52.154;5.580;2023-03-20T06:49:47;25.95;;;14.25;;
24357;SDS011;13668;52.154;5.580;2023-03-20T06:52:14;21.45;;;14.18;;
24357;SDS011;13668;52.154;5.580;2023-03-20T06:54:40;23.67;;;13.67;;
24357;SDS011;13668;52.154;5.580;2023-03-20T06:57:09;21.88;;;14.63;;
24357;SDS011;13668;52.154;5.580;2023-03-20T06:59:35;22.50;;;15.45;;
24357;SDS011;13668;52.154;5.580;2023-03-20T07:02:02;21.23;;;13.77;;
24357;SDS011;13668;52.154;5.580;2023-03-20T07:04:28;21.63;;;14.52;;
24357;SDS011;13668;52.154;5.580;2023-03-20T07:06:54;22.23;;;13.77;;
24357;SDS011;13668;52.154;5.580;2023-03-20T07:09:21;21.33;;;13.65;;
24357;SDS011;13668;52.154;5.580;2023-03-20T07:11:47;23.70;;;13.93;;
24357;SDS011;13668;52.154;5.580;2023-03-20T07:14:13;23.15;;;14.18;;
24357;SDS011;13668;52.154;5.580;2023-03-20T07:16:40;21.73;;;13.23;;
24357;SDS011;13668;52.154;5.580;2023-03-20T07:19:06;20.85;;;13.52;;
24357;SDS011;13668;52.154;5.580;2023-03-20T07:21:32;22.35;;;13.68;;
24357;SDS011;13668;52.154;5.580;2023-03-20T07:23:58;25.70;;;14.45;;
24357;SDS011;13668;52.154;5.580;2023-03-20T07:26:25;23.08;;;13.00;;
24357;SDS011;13668;52.154;5.580;2023-03-20T07:28:51;22.38;;;12.63;;
24357;SDS011;13668;52.154;5.580;2023-03-20T07:31:21;22.00;;;13.52;;
24357;SDS011;13668;52.154;5.580;2023-03-20T07:33:47;21.08;;;12.93;;
24357;SDS011;13668;52.154;5.580;2023-03-20T07:36:13;26.88;;;13.65;;
24357;SDS011;13668;52.154;5.580;2023-03-20T07:38:39;20.20;;;11.85;;
24357;SDS011;13668;52.154;5.580;2023-03-20T07:41:05;25.70;;;12.75;;
24357;SDS011;13668;52.154;5.580;2023-03-20T07:43:32;21.40;;;11.77;;
24357;SDS011;13668;52.154;5.580;2023-03-20T07:46:00;18.17;;;11.77;;
24357;SDS011;13668;52.154;5.580;2023-03-20T07:48:26;23.35;;;12.15;;
24357;SDS011;13668;52.154;5.580;2023-03-20T07:50:52;21.02;;;11.57;;
24357;SDS011;13668;52.154;5.580;2023-03-20T07:53:18;21.90;;;11.93;;
24357;SDS011;13668;52.154;5.580;2023-03-20T07:55:44;18.98;;;10.93;;
24357;SDS011;13668;52.154;5.580;2023-03-20T07:58:10;19.65;;;12.07;;
24357;SDS011;13668;52.154;5.580;2023-03-20T08:00:36;20.65;;;11.95;;
24357;SDS011;13668;52.154;5.580;2023-03-20T08:03:02;21.80;;;11.85;;
24357;SDS011;13668;52.154;5.580;2023-03-20T08:05:28;16.13;;;10.50;;
24357;SDS011;13668;52.154;5.580;2023-03-20T08:07:54;22.83;;;11.63;;
24357;SDS011;13668;52.154;5.580;2023-03-20T08:10:20;22.15;;;11.57;;
24357;SDS011;13668;52.154;5.580;2023-03-20T08:12:46;17.55;;;11.32;;
24357;SDS011;13668;52.154;5.580;2023-03-20T08:15:12;19.63;;;11.48;;
24357;SDS011;13668;52.154;5.580;2023-03-20T08:17:41;18.75;;;12.15;;
24357;SDS011;13668;52.154;5.580;2023-03-20T08:20:07;18.55;;;11.65;;
24357;SDS011;13668;52.154;5.580;2023-03-20T08:22:33;20.20;;;10.40;;
24357;SDS011;13668;52.154;5.580;2023-03-20T08:24:59;17.17;;;10.82;;
24357;SDS011;13668;52.154;5.580;2023-03-20T08:27:25;17.25;;;9.57;;
24357;SDS011;13668;52.154;5.580;2023-03-20T08:29:51;20.98;;;10.00;;
24357;SDS011;13668;52.154;5.580;2023-03-20T08:32:17;16.60;;;10.02;;
24357;SDS011;13668;52.154;5.580;2023-03-20T08:34:43;15.65;;;9.57;;
24357;SDS011;13668;52.154;5.580;2023-03-20T08:37:09;15.35;;;9.52;;
24357;SDS011;13668;52.154;5.580;2023-03-20T08:39:37;16.92;;;9.82;;
24357;SDS011;13668;52.154;5.580;2023-03-20T08:42:04;17.55;;;10.00;;
24357;SDS011;13668;52.154;5.580;2023-03-20T08:44:30;18.00;;;9.55;;
24357;SDS011;13668;52.154;5.580;2023-03-20T08:46:56;15.70;;;8.82;;
24357;SDS011;13668;52.154;5.580;2023-03-20T08:49:22;19.15;;;9.27;;
24357;SDS011;13668;52.154;5.580;2023-03-20T08:51:48;15.57;;;9.35;;
24357;SDS011;13668;52.154;5.580;2023-03-20T08:54:14;14.60;;;8.20;;
24357;SDS011;13668;52.154;5.580;2023-03-20T08:56:42;13.32;;;8.43;;
24357;SDS011;13668;52.154;5.580;2023-03-20T08:59:08;12.18;;;7.88;;
24357;SDS011;13668;52.154;5.580;2023-03-20T09:01:34;11.23;;;7.55;;
24357;SDS011;13668;52.154;5.580;2023-03-20T09:04:00;15.52;;;7.95;;
24357;SDS011;13668;52.154;5.580;2023-03-20T09:06:26;12.52;;;7.30;;
24357;SDS011;13668;52.154;5.580;2023-03-20T09:08:53;16.05;;;7.25;;
24357;SDS011;13668;52.154;5.580;2023-03-20T09:11:21;12.27;;;6.85;;
24357;SDS011;13668;52.154;5.580;2023-03-20T09:13:47;10.10;;;6.90;;
24357;SDS011;13668;52.154;5.580;2023-03-20T09:16:13;18.38;;;7.35;;
24357;SDS011;13668;52.154;5.580;2023-03-20T09:18:38;17.15;;;7.93;;
24357;SDS011;13668;52.154;5.580;2023-03-20T09:21:05;17.52;;;7.05;;
24357;SDS011;13668;52.154;5.580;2023-03-20T09:23:31;15.38;;;7.65;;
24357;SDS011;13668;52.154;5.580;2023-03-20T09:25:57;13.23;;;7.13;;
24357;SDS011;13668;52.154;5.580;2023-03-20T09:28:23;14.52;;;7.18;;
24357;SDS011;13668;52.154;5.580;2023-03-20T09:30:49;11.38;;;7.15;;
24357;SDS011;13668;52.154;5.580;2023-03-20T09:33:19;14.20;;;7.45;;
24357;SDS011;13668;52.154;5.580;2023-03-20T09:35:45;12.35;;;7.03;;
24357;SDS011;13668;52.154;5.580;2023-03-20T09:38:11;12.45;;;6.80;;
24357;SDS011;13668;52.154;5.580;2023-03-20T09:40:51;10.78;;;6.98;;
24357;SDS011;13668;52.154;5.580;2023-03-20T09:45:49;7.82;;;5.97;;
24357;SDS011;13668;52.154;5.580;2023-03-20T09:48:18;11.40;;;6.25;;
24357;SDS011;13668;52.154;5.580;2023-03-20T09:50:53;15.93;;;6.40;;
24357;SDS011;13668;52.154;5.580;2023-03-20T09:55:48;11.45;;;6.53;;
24357;SDS011;13668;52.154;5.580;2023-03-20T09:58:25;15.15;;;6.53;;
24357;SDS011;13668;52.154;5.580;2023-03-20T10:00:51;12.82;;;6.57;;
24357;SDS011;13668;52.154;5.580;2023-03-20T10:03:21;14.50;;;6.82;;
24357;SDS011;13668;52.154;5.580;2023-03-20T10:06:05;14.50;;;6.70;;
24357;SDS011;13668;52.154;5.580;2023-03-20T10:08:34;11.98;;;6.30;;
24357;SDS011;13668;52.154;5.580;2023-03-20T10:13:47;10.50;;;6.25;;
24357;SDS011;13668;52.154;5.580;2023-03-20T10:18:45;11.32;;;6.88;;
24357;SDS011;13668;52.154;5.580;2023-03-20T10:22:00;13.65;;;7.13;;
24357;SDS011;13668;52.154;5.580;2023-03-20T10:24:04;13.23;;;6.45;;
24357;SDS011;13668;52.154;5.580;2023-03-20T10:26:32;11.77;;;6.25;;
24357;SDS011;13668;52.154;5.580;2023-03-20T10:29:00;8.25;;;5.75;;
24357;SDS011;13668;52.154;5.580;2023-03-20T10:33:58;9.48;;;6.28;;
24357;SDS011;13668;52.154;5.580;2023-03-20T10:41:57;10.27;;;5.82;;
24357;SDS011;13668;52.154;5.580;2023-03-20T10:44:34;9.30;;;5.15;;
24357;SDS011;13668;52.154;5.580;2023-03-20T10:47:02;10.60;;;6.00;;
24357;SDS011;13668;52.154;5.580;2023-03-20T10:49:29;8.50;;;5.53;;
24357;SDS011;13668;52.154;5.580;2023-03-20T10:51:59;14.38;;;5.22;;
24357;SDS011;13668;52.154;5.580;2023-03-20T10:54:33;7.72;;;4.57;;
24357;SDS011;13668;52.154;5.580;2023-03-20T10:57:04;10.13;;;5.35;;
24357;SDS011;13668;52.154;5.580;2023-03-20T10:59:36;8.90;;;4.97;;
24357;SDS011;13668;52.154;5.580;2023-03-20T11:02:08;12.00;;;5.85;;
24357;SDS011;13668;52.154;5.580;2023-03-20T11:04:35;8.45;;;5.38;;
24357;SDS011;13668;52.154;5.580;2023-03-20T11:07:02;9.07;;;5.57;;
24357;SDS011;13668;52.154;5.580;2023-03-20T11:09:31;9.68;;;5.50;;
24357;SDS011;13668;52.154;5.580;2023-03-20T11:11:58;11.63;;;5.15;;
24357;SDS011;13668;52.154;5.580;2023-03-20T11:14:26;10.02;;;6.05;;
24357;SDS011;13668;52.154;5.580;2023-03-20T11:16:53;8.20;;;5.60;;
24357;SDS011;13668;52.154;5.580;2023-03-20T11:19:19;11.52;;;5.75;;
24357;SDS011;13668;52.154;5.580;2023-03-20T11:21:50;12.35;;;5.60;;
24357;SDS011;13668;52.154;5.580;2023-03-20T11:24:21;12.50;;;5.65;;
24357;SDS011;13668;52.154;5.580;2023-03-20T11:26:49;13.27;;;6.47;;
24357;SDS011;13668;52.154;5.580;2023-03-20T11:29:24;11.48;;;4.85;;
24357;SDS011;13668;52.154;5.580;2023-03-20T11:31:51;11.82;;;6.03;;
24357;SDS011;13668;52.154;5.580;2023-03-20T11:36:56;11.10;;;5.47;;
24357;SDS011;13668;52.154;5.580;2023-03-20T11:39:24;10.35;;;6.32;;
24357;SDS011;13668;52.154;5.580;2023-03-20T11:41:52;8.55;;;5.72;;
24357;SDS011;13668;52.154;5.580;2023-03-20T11:44:25;12.48;;;6.20;;
24357;SDS011;13668;52.154;5.580;2023-03-20T11:46:59;12.38;;;6.43;;
24357;SDS011;13668;52.154;5.580;2023-03-20T11:49:27;10.52;;;7.28;;
24357;SDS011;13668;52.154;5.580;2023-03-20T11:51:55;12.10;;;6.88;;
24357;SDS011;13668;52.154;5.580;2023-03-20T11:54:21;11.10;;;7.15;;
24357;SDS011;13668;52.154;5.580;2023-03-20T11:56:50;10.60;;;7.10;;
24357;SDS011;13668;52.154;5.580;2023-03-20T11:59:17;15.60;;;8.30;;
24357;SDS011;13668;52.154;5.580;2023-03-20T12:01:45;16.45;;;8.75;;
24357;SDS011;13668;52.154;5.580;2023-03-20T12:06:41;11.05;;;7.32;;
24357;SDS011;13668;52.154;5.580;2023-03-20T12:11:56;15.35;;;8.65;;
24357;SDS011;13668;52.154;5.580;2023-03-20T12:14:44;13.77;;;9.05;;
24357;SDS011;13668;52.154;5.580;2023-03-20T12:17:19;13.65;;;8.52;;
24357;SDS011;13668;52.154;5.580;2023-03-20T12:19:50;18.52;;;9.90;;
24357;SDS011;13668;52.154;5.580;2023-03-20T12:22:32;18.63;;;9.73;;
24357;SDS011;13668;52.154;5.580;2023-03-20T12:27:45;18.50;;;9.73;;
24357;SDS011;13668;52.154;5.580;2023-03-20T12:30:17;16.55;;;10.43;;
24357;SDS011;13668;52.154;5.580;2023-03-20T12:32:47;20.85;;;10.13;;
24357;SDS011;13668;52.154;5.580;2023-03-20T12:35:21;17.90;;;11.48;;
24357;SDS011;13668;52.154;5.580;2023-03-20T12:37:50;18.67;;;11.57;;
24357;SDS011;13668;52.154;5.580;2023-03-20T12:40:16;23.05;;;11.75;;
24357;SDS011;13668;52.154;5.580;2023-03-20T12:42:51;20.13;;;11.50;;
24357;SDS011;13668;52.154;5.580;2023-03-20T12:45:22;21.38;;;12.05;;
24357;SDS011;13668;52.154;5.580;2023-03-20T13:02:57;24.13;;;14.38;;
24357;SDS011;13668;52.154;5.580;2023-03-20T13:05:29;27.45;;;14.93;;
24357;SDS011;13668;52.154;5.580;2023-03-20T13:08:41;23.42;;;13.75;;
24357;SDS011;13668;52.154;5.580;2023-03-20T13:13:24;18.35;;;12.77;;
24357;SDS011;13668;52.154;5.580;2023-03-20T13:15:56;21.40;;;13.95;;
24357;SDS011;13668;52.154;5.580;2023-03-20T13:21:05;20.45;;;13.40;;
24357;SDS011;13668;52.154;5.580;2023-03-20T13:23:43;23.77;;;13.25;;
24357;SDS011;13668;52.154;5.580;2023-03-20T13:26:22;24.63;;;14.00;;
24357;SDS011;13668;52.154;5.580;2023-03-20T13:41:43;17.88;;;13.13;;
24357;SDS011;13668;52.154;5.580;2023-03-20T13:44:09;23.02;;;14.57;;
24357;SDS011;13668;52.154;5.580;2023-03-20T13:46:40;18.95;;;14.07;;
24357;SDS011;13668;52.154;5.580;2023-03-20T13:49:12;21.23;;;13.98;;
24357;SDS011;13668;52.154;5.580;2023-03-20T13:51:50;24.13;;;14.40;;
24357;SDS011;13668;52.154;5.580;2023-03-20T13:56:59;20.52;;;13.52;;
24357;SDS011;13668;52.154;5.580;2023-03-20T14:05:04;23.50;;;14.02;;
24357;SDS011;13668;52.154;5.580;2023-03-20T14:07:35;26.42;;;13.98;;
24357;SDS011;13668;52.154;5.580;2023-03-20T14:12:56;25.88;;;15.05;;
24357;SDS011;13668;52.154;5.580;2023-03-20T14:15:26;22.27;;;14.30;;
24357;SDS011;13668;52.154;5.580;2023-03-20T14:17:52;21.52;;;14.55;;
24357;SDS011;13668;52.154;5.580;2023-03-20T14:20:21;27.83;;;15.20;;
24357;SDS011;13668;52.154;5.580;2023-03-20T14:22:51;21.00;;;13.65;;
24357;SDS011;13668;52.154;5.580;2023-03-20T14:25:18;20.30;;;14.25;;
24357;SDS011;13668;52.154;5.580;2023-03-20T14:27:58;19.35;;;14.00;;
24357;SDS011;13668;52.154;5.580;2023-03-20T14:33:38;28.58;;;15.57;;
24357;SDS011;13668;52.154;5.580;2023-03-20T14:35:49;21.88;;;15.10;;
24357;SDS011;13668;52.154;5.580;2023-03-20T14:38:24;23.25;;;15.40;;
24357;SDS011;13668;52.154;5.580;2023-03-20T14:49:13;21.13;;;15.43;;
24357;SDS011;13668;52.154;5.580;2023-03-20T14:51:43;24.35;;;15.68;;
24357;SDS011;13668;52.154;5.580;2023-03-20T14:54:23;22.38;;;14.07;;
24357;SDS011;13668;52.154;5.580;2023-03-20T14:56:50;22.00;;;14.68;;
24357;SDS011;13668;52.154;5.580;2023-03-20T14:59:17;25.35;;;14.98;;
24357;SDS011;13668;52.154;5.580;2023-03-20T15:01:52;24.98;;;15.20;;
24357;SDS011;13668;52.154;5.580;2023-03-20T15:04:21;27.15;;;15.50;;
24357;SDS011;13668;52.154;5.580;2023-03-20T15:06:59;23.00;;;14.85;;
24357;SDS011;13668;52.154;5.580;2023-03-20T15:09:26;25.50;;;16.13;;
24357;SDS011;13668;52.154;5.580;2023-03-20T15:11:55;25.23;;;14.82;;
24357;SDS011;13668;52.154;5.580;2023-03-20T15:14:28;23.58;;;15.13;;
24357;SDS011;13668;52.154;5.580;2023-03-20T15:16:56;22.95;;;14.73;;
24357;SDS011;13668;52.154;5.580;2023-03-20T15:19:23;30.85;;;15.38;;
24357;SDS011;13668;52.154;5.580;2023-03-20T15:21:49;24.60;;;15.65;;
24357;SDS011;13668;52.154;5.580;2023-03-20T15:24:16;23.38;;;16.27;;
24357;SDS011;13668;52.154;5.580;2023-03-20T15:26:44;29.77;;;16.58;;
24357;SDS011;13668;52.154;5.580;2023-03-20T15:29:12;25.35;;;15.95;;
24357;SDS011;13668;52.154;5.580;2023-03-20T15:31:39;22.55;;;15.40;;
24357;SDS011;13668;52.154;5.580;2023-03-20T15:34:07;22.10;;;15.18;;
24357;SDS011;13668;52.154;5.580;2023-03-20T15:36:34;27.83;;;15.95;;
24357;SDS011;13668;52.154;5.580;2023-03-20T15:39:05;19.00;;;14.82;;
24357;SDS011;13668;52.154;5.580;2023-03-20T15:41:32;25.88;;;15.25;;
24357;SDS011;13668;52.154;5.580;2023-03-20T15:46:39;19.58;;;14.98;;
24357;SDS011;13668;52.154;5.580;2023-03-20T15:49:05;24.10;;;14.82;;
24357;SDS011;13668;52.154;5.580;2023-03-20T15:51:31;25.08;;;15.45;;
24357;SDS011;13668;52.154;5.580;2023-03-20T15:53:59;23.10;;;14.43;;
24357;SDS011;13668;52.154;5.580;2023-03-20T15:56:27;17.45;;;13.68;;
24357;SDS011;13668;52.154;5.580;2023-03-20T15:58:53;22.98;;;15.07;;
24357;SDS011;13668;52.154;5.580;2023-03-20T16:01:24;22.02;;;14.63;;
24357;SDS011;13668;52.154;5.580;2023-03-20T16:03:51;24.08;;;15.32;;
24357;SDS011;13668;52.154;5.580;2023-03-20T16:06:19;17.58;;;13.07;;
24357;SDS011;13668;52.154;5.580;2023-03-20T16:08:45;21.45;;;13.98;;
24357;SDS011;13668;52.154;5.580;2023-03-20T16:11:20;24.75;;;15.75;;
24357;SDS011;13668;52.154;5.580;2023-03-20T16:13:47;20.52;;;15.45;;
24357;SDS011;13668;52.154;5.580;2023-03-20T16:16:20;18.48;;;14.65;;
24357;SDS011;13668;52.154;5.580;2023-03-20T16:18:48;23.75;;;15.35;;
24357;SDS011;13668;52.154;5.580;2023-03-20T16:21:17;22.50;;;16.52;;
24357;SDS011;13668;52.154;5.580;2023-03-20T16:23:45;23.67;;;16.98;;
24357;SDS011;13668;52.154;5.580;2023-03-20T16:26:14;20.60;;;16.63;;
24357;SDS011;13668;52.154;5.580;2023-03-20T16:28:42;25.90;;;16.88;;